Strona główna
METAR-TAF:

METAR-TAF

Lotnisko :

Port lotniczy Margaret Ekpo

Calabar, Nigeria

Szerokość geograficzna: 04-58N, Długość geograficzna: 008-21E, wysokość: 63 m

Aktualna obserwacja pogody

Raport powstał 2 godziny i 19 minut temu, godzina 11:00 UTC
Wiatr 3 kt od zachód
Temperatura 27°C
Wilgotność 89%
Ciśnienie 1015 hPa
Widzialność: 5000 m
Przerywane chmury na wysokości 1000 ft
Mało chmury na wysokości 1900 ft, Cumulonimbus.
zmętnienie,

METAR: DNCA 211100Z 27003KT 5000 HZ BKN010 FEW019CB 27/25 Q1015

czas: 14:19 (13:19 UTC)


TAF: brakujący

Obserwacja i prognoza pogody dla ponad 4000 lotnisk (raport METAR i TAF).

Dostępne stacje oznaczono żółtymi i czerwonymi punktami na mapie.

Najedź kursorem aby zobaczyć nazwę stacji.

Kliknij aby zobaczyć obserwacje i prognozy pogody.

Aby zmienić mapę: kliknij na zielony przycisk z czarnym krzyżykiem, aby powiększyć; na zielony przycisk z myślnikiem, aby pomniejszyć; na zielone strzałki, aby przejść do map sąsiednich.


METAR-TAF: